sensor_id;sensor_type;location;lat;lon;timestamp;pressure;altitude;pressure_sealevel;temperature;humidity
68226;BME280;55045;49.410;11.030;2023-02-02T00:00:30;98239.31;;;4.27;100.00
68226;BME280;55045;49.410;11.030;2023-02-02T00:03:34;98201.22;;;4.07;100.00
68226;BME280;55045;49.410;11.030;2023-02-02T00:06:40;98227.28;;;4.30;100.00
68226;BME280;55045;49.410;11.030;2023-02-02T00:09:43;98236.97;;;4.16;100.00
68226;BME280;55045;49.410;11.030;2023-02-02T00:12:47;98188.84;;;3.86;100.00
68226;BME280;55045;49.410;11.030;2023-02-02T00:15:51;98217.69;;;3.97;100.00
68226;BME280;55045;49.410;11.030;2023-02-02T00:18:57;98216.41;;;4.19;100.00
68226;BME280;55045;49.410;11.030;2023-02-02T00:22:02;98196.88;;;4.12;100.00
68226;BME280;55045;49.410;11.030;2023-02-02T00:25:07;98209.50;;;4.21;100.00
68226;BME280;55045;49.410;11.030;2023-02-02T00:28:10;98204.28;;;4.24;100.00
68226;BME280;55045;49.410;11.030;2023-02-02T00:31:14;98205.88;;;4.31;100.00
68226;BME280;55045;49.410;11.030;2023-02-02T00:34:18;98170.59;;;4.01;100.00
68226;BME280;55045;49.410;11.030;2023-02-02T00:37:24;98135.00;;;3.84;100.00
68226;BME280;55045;49.410;11.030;2023-02-02T00:40:27;98205.91;;;4.28;100.00
68226;BME280;55045;49.410;11.030;2023-02-02T00:43:30;98185.03;;;4.05;100.00
68226;BME280;55045;49.410;11.030;2023-02-02T00:46:34;98208.72;;;4.18;100.00
68226;BME280;55045;49.410;11.030;2023-02-02T00:49:40;98125.97;;;3.66;100.00
68226;BME280;55045;49.410;11.030;2023-02-02T00:52:45;98224.34;;;4.07;100.00
68226;BME280;55045;49.410;11.030;2023-02-02T00:55:49;98231.28;;;4.02;100.00
68226;BME280;55045;49.410;11.030;2023-02-02T00:58:52;98219.38;;;3.98;100.00
68226;BME280;55045;49.410;11.030;2023-02-02T01:01:55;98186.59;;;3.70;100.00
68226;BME280;55045;49.410;11.030;2023-02-02T01:04:59;98218.91;;;3.81;100.00
68226;BME280;55045;49.410;11.030;2023-02-02T01:08:05;98165.75;;;3.42;100.00
68226;BME280;55045;49.410;11.030;2023-02-02T01:11:08;98228.44;;;3.72;100.00
68226;BME280;55045;49.410;11.030;2023-02-02T01:14:12;98231.03;;;3.72;100.00
68226;BME280;55045;49.410;11.030;2023-02-02T01:17:15;98235.94;;;3.83;100.00
68226;BME280;55045;49.410;11.030;2023-02-02T01:20:22;98226.59;;;3.81;100.00
68226;BME280;55045;49.410;11.030;2023-02-02T01:23:28;98240.06;;;3.92;100.00
68226;BME280;55045;49.410;11.030;2023-02-02T01:26:31;98246.88;;;3.93;100.00
68226;BME280;55045;49.410;11.030;2023-02-02T01:29:35;98233.22;;;3.91;100.00
68226;BME280;55045;49.410;11.030;2023-02-02T01:32:39;98235.84;;;3.89;100.00
68226;BME280;55045;49.410;11.030;2023-02-02T01:35:46;98241.06;;;3.83;100.00
68226;BME280;55045;49.410;11.030;2023-02-02T01:38:51;98261.50;;;3.88;100.00
68226;BME280;55045;49.410;11.030;2023-02-02T01:41:55;98257.31;;;3.84;100.00
68226;BME280;55045;49.410;11.030;2023-02-02T01:45:08;98267.47;;;3.90;100.00
68226;BME280;55045;49.410;11.030;2023-02-02T01:48:17;98297.34;;;3.92;100.00
68226;BME280;55045;49.410;11.030;2023-02-02T01:51:26;98279.38;;;3.92;100.00
68226;BME280;55045;49.410;11.030;2023-02-02T01:54:33;98279.19;;;4.03;100.00
68226;BME280;55045;49.410;11.030;2023-02-02T01:57:39;98301.47;;;4.01;100.00
68226;BME280;55045;49.410;11.030;2023-02-02T02:00:44;98307.09;;;3.73;100.00
68226;BME280;55045;49.410;11.030;2023-02-02T02:03:48;98312.47;;;3.07;100.00
68226;BME280;55045;49.410;11.030;2023-02-02T02:06:52;98323.78;;;2.28;100.00
68226;BME280;55045;49.410;11.030;2023-02-02T02:09:58;98334.78;;;2.36;100.00
68226;BME280;55045;49.410;11.030;2023-02-02T02:13:05;98340.41;;;1.90;100.00
68226;BME280;55045;49.410;11.030;2023-02-02T02:16:17;98350.78;;;1.72;100.00
68226;BME280;55045;49.410;11.030;2023-02-02T02:23:59;98361.34;;;1.35;100.00
68226;BME280;55045;49.410;11.030;2023-02-02T02:28:31;98358.94;;;1.14;100.00
68226;BME280;55045;49.410;11.030;2023-02-02T02:35:12;98346.44;;;0.74;100.00
68226;BME280;55045;49.410;11.030;2023-02-02T02:38:27;98366.03;;;0.66;100.00
68226;BME280;55045;49.410;11.030;2023-02-02T02:41:39;98378.81;;;0.60;100.00
68226;BME280;55045;49.410;11.030;2023-02-02T02:44:46;98360.19;;;0.37;100.00
68226;BME280;55045;49.410;11.030;2023-02-02T02:47:52;98394.13;;;0.60;100.00
68226;BME280;55045;49.410;11.030;2023-02-02T02:51:04;98382.25;;;0.50;100.00
68226;BME280;55045;49.410;11.030;2023-02-02T02:54:09;98375.56;;;0.21;100.00
68226;BME280;55045;49.410;11.030;2023-02-02T02:57:29;98403.53;;;0.47;100.00
68226;BME280;55045;49.410;11.030;2023-02-02T03:00:44;98383.22;;;0.15;100.00
68226;BME280;55045;49.410;11.030;2023-02-02T03:03:59;98412.94;;;0.38;100.00
68226;BME280;55045;49.410;11.030;2023-02-02T03:07:12;98403.66;;;0.02;100.00
68226;BME280;55045;49.410;11.030;2023-02-02T03:10:22;98423.16;;;0.19;100.00
68226;BME280;55045;49.410;11.030;2023-02-02T03:13:28;98422.34;;;0.22;100.00
68226;BME280;55045;49.410;11.030;2023-02-02T03:16:33;98413.81;;;0.23;100.00
68226;BME280;55045;49.410;11.030;2023-02-02T03:19:37;98343.34;;;-0.16;100.00
68226;BME280;55045;49.410;11.030;2023-02-02T03:22:41;98424.00;;;0.26;100.00
68226;BME280;55045;49.410;11.030;2023-02-02T03:25:44;98421.50;;;0.21;100.00
68226;BME280;55045;49.410;11.030;2023-02-02T03:28:49;98445.25;;;0.34;100.00
68226;BME280;55045;49.410;11.030;2023-02-02T03:31:52;98446.97;;;0.41;100.00
68226;BME280;55045;49.410;11.030;2023-02-02T03:34:57;98430.81;;;0.32;100.00
68226;BME280;55045;49.410;11.030;2023-02-02T03:38:01;98429.94;;;0.29;100.00
68226;BME280;55045;49.410;11.030;2023-02-02T03:41:05;98435.91;;;0.33;100.00
68226;BME280;55045;49.410;11.030;2023-02-02T03:44:09;98443.53;;;0.47;100.00
68226;BME280;55045;49.410;11.030;2023-02-02T03:47:12;98404.47;;;0.23;100.00
68226;BME280;55045;49.410;11.030;2023-02-02T03:50:23;98417.19;;;0.42;100.00
68226;BME280;55045;49.410;11.030;2023-02-02T03:53:26;98429.88;;;0.62;100.00
68226;BME280;55045;49.410;11.030;2023-02-02T03:56:30;98429.03;;;0.50;100.00
68226;BME280;55045;49.410;11.030;2023-02-02T03:59:33;98434.19;;;0.44;100.00
68226;BME280;55045;49.410;11.030;2023-02-02T04:02:37;98433.34;;;0.44;100.00
68226;BME280;55045;49.410;11.030;2023-02-02T04:05:42;98395.09;;;0.35;100.00
68226;BME280;55045;49.410;11.030;2023-02-02T04:08:45;98425.66;;;0.51;100.00
68226;BME280;55045;49.410;11.030;2023-02-02T04:11:49;98421.41;;;0.52;100.00
68226;BME280;55045;49.410;11.030;2023-02-02T04:14:52;98410.31;;;0.50;100.00
68226;BME280;55045;49.410;11.030;2023-02-02T04:17:56;98411.00;;;0.95;100.00
68226;BME280;55045;49.410;11.030;2023-02-02T04:21:01;98405.25;;;0.51;100.00
68226;BME280;55045;49.410;11.030;2023-02-02T04:24:05;98359.34;;;0.42;100.00
68226;BME280;55045;49.410;11.030;2023-02-02T04:27:09;98364.31;;;0.73;100.00
68226;BME280;55045;49.410;11.030;2023-02-02T04:30:12;98349.13;;;0.41;100.00
68226;BME280;55045;49.410;11.030;2023-02-02T04:34:30;98391.56;;;0.65;100.00
68226;BME280;55045;49.410;11.030;2023-02-02T04:37:34;98396.66;;;0.65;100.00
68226;BME280;55045;49.410;11.030;2023-02-02T04:40:37;98371.03;;;0.81;100.00
68226;BME280;55045;49.410;11.030;2023-02-02T04:43:41;98394.69;;;1.15;100.00
68226;BME280;55045;49.410;11.030;2023-02-02T04:46:44;98394.75;;;1.02;100.00
68226;BME280;55045;49.410;11.030;2023-02-02T04:49:49;98403.28;;;1.05;100.00
68226;BME280;55045;49.410;11.030;2023-02-02T04:52:53;98404.09;;;1.09;100.00
68226;BME280;55045;49.410;11.030;2023-02-02T04:55:57;98384.56;;;1.03;100.00
68226;BME280;55045;49.410;11.030;2023-02-02T04:59:01;98421.78;;;1.39;100.00
68226;BME280;55045;49.410;11.030;2023-02-02T05:02:04;98427.72;;;1.43;100.00
68226;BME280;55045;49.410;11.030;2023-02-02T05:05:11;98441.31;;;1.50;100.00
68226;BME280;55045;49.410;11.030;2023-02-02T05:08:15;98438.19;;;1.02;100.00
68226;BME280;55045;49.410;11.030;2023-02-02T05:11:20;98442.56;;;0.78;100.00
68226;BME280;55045;49.410;11.030;2023-02-02T05:14:24;98440.06;;;0.63;100.00
68226;BME280;55045;49.410;11.030;2023-02-02T05:17:27;98435.63;;;1.05;100.00
68226;BME280;55045;49.410;11.030;2023-02-02T05:20:32;98440.00;;;0.78;100.00
68226;BME280;55045;49.410;11.030;2023-02-02T05:23:36;98436.56;;;0.89;100.00
68226;BME280;55045;49.410;11.030;2023-02-02T05:26:39;98431.50;;;0.82;100.00
68226;BME280;55045;49.410;11.030;2023-02-02T05:29:43;98390.50;;;1.07;100.00
68226;BME280;55045;49.410;11.030;2023-02-02T05:32:48;98423.78;;;0.89;100.00
68226;BME280;55045;49.410;11.030;2023-02-02T05:35:53;98420.34;;;0.99;100.00
68226;BME280;55045;49.410;11.030;2023-02-02T05:38:56;98429.78;;;0.80;100.00
68226;BME280;55045;49.410;11.030;2023-02-02T05:42:01;98411.16;;;0.58;100.00
68226;BME280;55045;49.410;11.030;2023-02-02T05:45:05;98438.38;;;0.56;100.00
68226;BME280;55045;49.410;11.030;2023-02-02T05:48:11;98449.41;;;0.67;100.00
68226;BME280;55045;49.410;11.030;2023-02-02T05:51:19;98429.09;;;0.35;100.00
68226;BME280;55045;49.410;11.030;2023-02-02T05:54:24;98462.19;;;0.61;100.00
68226;BME280;55045;49.410;11.030;2023-02-02T05:57:27;98462.19;;;0.60;100.00
68226;BME280;55045;49.410;11.030;2023-02-02T06:00:31;98473.28;;;0.49;100.00
68226;BME280;55045;49.410;11.030;2023-02-02T06:03:34;98464.75;;;0.50;100.00
68226;BME280;55045;49.410;11.030;2023-02-02T06:06:39;98475.81;;;0.51;100.00
68226;BME280;55045;49.410;11.030;2023-02-02T06:09:43;98476.72;;;0.36;100.00
68226;BME280;55045;49.410;11.030;2023-02-02T06:12:46;98490.31;;;0.38;100.00
68226;BME280;55045;49.410;11.030;2023-02-02T06:15:50;98484.38;;;0.35;100.00
68226;BME280;55045;49.410;11.030;2023-02-02T06:18:54;98489.50;;;0.25;100.00
68226;BME280;55045;49.410;11.030;2023-02-02T06:21:59;98482.63;;;0.64;100.00
68226;BME280;55045;49.410;11.030;2023-02-02T06:25:03;98482.69;;;0.32;100.00
68226;BME280;55045;49.410;11.030;2023-02-02T06:28:08;98475.03;;;0.17;100.00
68226;BME280;55045;49.410;11.030;2023-02-02T06:31:12;98441.03;;;0.15;100.00
68226;BME280;55045;49.410;11.030;2023-02-02T06:34:20;98503.09;;;0.34;100.00
68226;BME280;55045;49.410;11.030;2023-02-02T06:37:25;98503.94;;;0.19;100.00
68226;BME280;55045;49.410;11.030;2023-02-02T06:40:31;98501.34;;;0.57;100.00
68226;BME280;55045;49.410;11.030;2023-02-02T06:43:34;98501.38;;;0.36;100.00
68226;BME280;55045;49.410;11.030;2023-02-02T06:46:38;98492.91;;;0.24;100.00
68226;BME280;55045;49.410;11.030;2023-02-02T06:49:41;98503.94;;;0.37;100.00
68226;BME280;55045;49.410;11.030;2023-02-02T06:52:48;98513.28;;;0.43;100.00
68226;BME280;55045;49.410;11.030;2023-02-02T06:55:52;98507.34;;;0.33;100.00
68226;BME280;55045;49.410;11.030;2023-02-02T06:58:56;98510.72;;;0.47;100.00
68226;BME280;55045;49.410;11.030;2023-02-02T07:02:00;98500.50;;;0.50;100.00
68226;BME280;55045;49.410;11.030;2023-02-02T07:05:04;98514.09;;;0.58;100.00
68226;BME280;55045;49.410;11.030;2023-02-02T07:08:09;98493.75;;;0.33;100.00
68226;BME280;55045;49.410;11.030;2023-02-02T07:11:13;98520.94;;;0.46;100.00
68226;BME280;55045;49.410;11.030;2023-02-02T07:14:18;98487.75;;;0.49;100.00
68226;BME280;55045;49.410;11.030;2023-02-02T07:17:21;98519.22;;;0.55;100.00
68226;BME280;55045;49.410;11.030;2023-02-02T07:20:25;98503.06;;;0.37;100.00
68226;BME280;55045;49.410;11.030;2023-02-02T07:23:31;98536.25;;;0.53;100.00
68226;BME280;55045;49.410;11.030;2023-02-02T07:26:35;98533.63;;;0.76;100.00
68226;BME280;55045;49.410;11.030;2023-02-02T07:29:39;98532.81;;;0.56;100.00
68226;BME280;55045;49.410;11.030;2023-02-02T07:32:45;98516.69;;;0.45;100.00
68226;BME280;55045;49.410;11.030;2023-02-02T07:35:49;98533.56;;;0.96;100.00
68226;BME280;55045;49.410;11.030;2023-02-02T07:38:54;98524.19;;;1.01;100.00
68226;BME280;55045;49.410;11.030;2023-02-02T07:41:58;98488.59;;;0.48;100.00
68226;BME280;55045;49.410;11.030;2023-02-02T07:45:10;98520.00;;;0.83;100.00
68226;BME280;55045;49.410;11.030;2023-02-02T07:48:29;98526.84;;;0.69;100.00
68226;BME280;55045;49.410;11.030;2023-02-02T07:51:32;98496.22;;;0.63;100.00
68226;BME280;55045;49.410;11.030;2023-02-02T07:54:40;98512.34;;;0.85;100.00
68226;BME280;55045;49.410;11.030;2023-02-02T07:57:44;98499.59;;;0.68;100.00
68226;BME280;55045;49.410;11.030;2023-02-02T08:00:48;98520.81;;;0.93;100.00
68226;BME280;55045;49.410;11.030;2023-02-02T08:03:53;98525.03;;;1.02;100.00
68226;BME280;55045;49.410;11.030;2023-02-02T08:06:56;98502.13;;;0.85;100.00
68226;BME280;55045;49.410;11.030;2023-02-02T08:10:01;98524.16;;;1.10;100.00
68226;BME280;55045;49.410;11.030;2023-02-02T08:13:05;98523.38;;;0.95;100.00
68226;BME280;55045;49.410;11.030;2023-02-02T08:16:10;98530.75;;;1.51;100.00
68226;BME280;55045;49.410;11.030;2023-02-02T08:19:13;98519.06;;;1.01;100.00
68226;BME280;55045;49.410;11.030;2023-02-02T08:22:17;98509.72;;;0.99;100.00
68226;BME280;55045;49.410;11.030;2023-02-02T08:25:23;98471.56;;;0.62;100.00
68226;BME280;55045;49.410;11.030;2023-02-02T08:28:27;98526.53;;;1.49;100.00
68226;BME280;55045;49.410;11.030;2023-02-02T08:31:33;98526.72;;;1.09;100.00
68226;BME280;55045;49.410;11.030;2023-02-02T08:34:37;98526.72;;;1.09;100.00
68226;BME280;55045;49.410;11.030;2023-02-02T08:37:42;98535.22;;;1.14;100.00
68226;BME280;55045;49.410;11.030;2023-02-02T08:40:49;98513.13;;;1.01;100.00
68226;BME280;55045;49.410;11.030;2023-02-02T08:43:53;98526.72;;;1.09;100.00
68226;BME280;55045;49.410;11.030;2023-02-02T08:46:57;98509.66;;;1.11;100.00
68226;BME280;55045;49.410;11.030;2023-02-02T08:50:00;98522.25;;;1.55;100.00
68226;BME280;55045;49.410;11.030;2023-02-02T08:53:04;98530.97;;;1.14;100.00
68226;BME280;55045;49.410;11.030;2023-02-02T08:56:11;98523.13;;;1.47;100.00
68226;BME280;55045;49.410;11.030;2023-02-02T08:59:15;98512.25;;;1.08;100.00
68226;BME280;55045;49.410;11.030;2023-02-02T09:02:18;98520.69;;;1.22;100.00
68226;BME280;55045;49.410;11.030;2023-02-02T09:05:22;98506.31;;;1.00;100.00
68226;BME280;55045;49.410;11.030;2023-02-02T09:08:26;98535.19;;;1.23;100.00
68226;BME280;55045;49.410;11.030;2023-02-02T09:11:31;98541.16;;;1.16;100.00
68226;BME280;55045;49.410;11.030;2023-02-02T09:14:34;98530.81;;;1.40;100.00
68226;BME280;55045;49.410;11.030;2023-02-02T09:17:38;98528.31;;;1.30;100.00
68226;BME280;55045;49.410;11.030;2023-02-02T09:20:41;98526.69;;;1.18;100.00
68226;BME280;55045;49.410;11.030;2023-02-02T09:23:48;98530.81;;;1.42;100.00
68226;BME280;55045;49.410;11.030;2023-02-02T09:26:56;98538.56;;;1.22;100.00
68226;BME280;55045;49.410;11.030;2023-02-02T09:30:00;98540.28;;;1.26;100.00
68226;BME280;55045;49.410;11.030;2023-02-02T09:33:04;98521.50;;;1.33;100.00
68226;BME280;55045;49.410;11.030;2023-02-02T09:36:09;98518.94;;;1.32;100.00
68226;BME280;55045;49.410;11.030;2023-02-02T09:39:13;98507.97;;;1.08;100.00
68226;BME280;55045;49.410;11.030;2023-02-02T09:42:32;98513.72;;;1.50;100.00
68226;BME280;55045;49.410;11.030;2023-02-02T09:45:48;98523.97;;;1.50;100.00
68226;BME280;55045;49.410;11.030;2023-02-02T09:49:00;98546.09;;;1.53;100.00
68226;BME280;55045;49.410;11.030;2023-02-02T09:52:09;98545.25;;;1.54;100.00
68226;BME280;55045;49.410;11.030;2023-02-02T09:55:17;98538.25;;;1.82;100.00
68226;BME280;55045;49.410;11.030;2023-02-02T09:58:30;98554.06;;;2.34;100.00
68226;BME280;55045;49.410;11.030;2023-02-02T10:01:37;98558.31;;;3.21;100.00
68226;BME280;55045;49.410;11.030;2023-02-02T10:04:45;98549.31;;;3.56;100.00
68226;BME280;55045;49.410;11.030;2023-02-02T10:07:55;98542.44;;;3.61;100.00
68226;BME280;55045;49.410;11.030;2023-02-02T10:11:06;98528.50;;;3.77;100.00
68226;BME280;55045;49.410;11.030;2023-02-02T10:14:18;98544.63;;;3.87;100.00
68226;BME280;55045;49.410;11.030;2023-02-02T10:17:39;98534.25;;;3.94;100.00
68226;BME280;55045;49.410;11.030;2023-02-02T10:20:46;98534.91;;;4.07;100.00
68226;BME280;55045;49.410;11.030;2023-02-02T10:23:52;98547.75;;;4.05;100.00
68226;BME280;55045;49.410;11.030;2023-02-02T10:27:00;98544.22;;;4.14;100.00
68226;BME280;55045;49.410;11.030;2023-02-02T10:30:14;98526.19;;;4.17;100.00
68226;BME280;55045;49.410;11.030;2023-02-02T10:34:31;98452.22;;;3.90;100.00
68226;BME280;55045;49.410;11.030;2023-02-02T10:37:45;98519.25;;;4.24;100.00
68226;BME280;55045;49.410;11.030;2023-02-02T10:40:56;98525.91;;;4.34;100.00
68226;BME280;55045;49.410;11.030;2023-02-02T10:44:11;98504.63;;;4.27;100.00
68226;BME280;55045;49.410;11.030;2023-02-02T10:47:22;98514.78;;;4.33;100.00
68226;BME280;55045;49.410;11.030;2023-02-02T10:50:29;98520.69;;;4.40;100.00
68226;BME280;55045;49.410;11.030;2023-02-02T10:53:32;98525.81;;;4.40;100.00
68226;BME280;55045;49.410;11.030;2023-02-02T10:56:39;98536.09;;;4.39;100.00
68226;BME280;55045;49.410;11.030;2023-02-02T10:59:52;98535.06;;;4.49;100.00
68226;BME280;55045;49.410;11.030;2023-02-02T11:03:01;98526.31;;;4.59;100.00
68226;BME280;55045;49.410;11.030;2023-02-02T11:06:10;98519.38;;;4.66;100.00
68226;BME280;55045;49.410;11.030;2023-02-02T11:09:38;98520.31;;;4.61;100.00
68226;BME280;55045;49.410;11.030;2023-02-02T11:12:44;98514.03;;;4.76;100.00
68226;BME280;55045;49.410;11.030;2023-02-02T11:16:20;98509.50;;;4.89;100.00
68226;BME280;55045;49.410;11.030;2023-02-02T11:19:27;98495.13;;;4.80;100.00
68226;BME280;55045;49.410;11.030;2023-02-02T11:22:35;98518.88;;;4.93;100.00
68226;BME280;55045;49.410;11.030;2023-02-02T11:25:39;98518.66;;;5.04;100.00
68226;BME280;55045;49.410;11.030;2023-02-02T11:28:42;98508.47;;;4.98;100.00
68226;BME280;55045;49.410;11.030;2023-02-02T11:31:51;98512.03;;;4.92;100.00
68226;BME280;55045;49.410;11.030;2023-02-02T11:35:19;98515.41;;;4.94;100.00
68226;BME280;55045;49.410;11.030;2023-02-02T11:38:24;98537.56;;;5.00;100.00
68226;BME280;55045;49.410;11.030;2023-02-02T11:41:30;98549.59;;;4.98;100.00
68226;BME280;55045;49.410;11.030;2023-02-02T11:44:34;98539.28;;;5.01;100.00
68226;BME280;55045;49.410;11.030;2023-02-02T11:47:41;98534.81;;;5.09;100.00
68226;BME280;55045;49.410;11.030;2023-02-02T11:50:45;98529.72;;;5.07;100.00
68226;BME280;55045;49.410;11.030;2023-02-02T11:54:01;98532.22;;;5.12;100.00
68226;BME280;55045;49.410;11.030;2023-02-02T11:57:07;98468.38;;;4.90;100.00
68226;BME280;55045;49.410;11.030;2023-02-02T12:00:16;98488.03;;;4.93;100.00
68226;BME280;55045;49.410;11.030;2023-02-02T12:03:24;98506.59;;;5.06;100.00
68226;BME280;55045;49.410;11.030;2023-02-02T12:06:34;98477.56;;;5.02;100.00
68226;BME280;55045;49.410;11.030;2023-02-02T12:09:40;98491.19;;;5.06;100.00
68226;BME280;55045;49.410;11.030;2023-02-02T12:12:51;98522.00;;;5.07;100.00
68226;BME280;55045;49.410;11.030;2023-02-02T12:16:08;98504.84;;;5.08;100.00
68226;BME280;55045;49.410;11.030;2023-02-02T12:19:25;98517.75;;;5.06;100.00
68226;BME280;55045;49.410;11.030;2023-02-02T12:22:37;98497.09;;;5.09;100.00
68226;BME280;55045;49.410;11.030;2023-02-02T12:26:14;98490.97;;;5.16;100.00
68226;BME280;55045;49.410;11.030;2023-02-02T12:29:30;98490.06;;;5.19;100.00
68226;BME280;55045;49.410;11.030;2023-02-02T12:32:46;98518.44;;;5.14;100.00
68226;BME280;55045;49.410;11.030;2023-02-02T12:36:03;98499.84;;;5.02;100.00
68226;BME280;55045;49.410;11.030;2023-02-02T12:39:20;98536.47;;;5.13;100.00
68226;BME280;55045;49.410;11.030;2023-02-02T12:49:51;98530.69;;;5.02;100.00
68226;BME280;55045;49.410;11.030;2023-02-02T12:53:19;98552.03;;;5.05;100.00
68226;BME280;55045;49.410;11.030;2023-02-02T12:56:30;98551.94;;;5.10;100.00
68226;BME280;55045;49.410;11.030;2023-02-02T12:59:52;98585.31;;;5.13;100.00
68226;BME280;55045;49.410;11.030;2023-02-02T13:03:14;98584.31;;;5.20;100.00
68226;BME280;55045;49.410;11.030;2023-02-02T13:10:00;98489.28;;;4.72;100.00
68226;BME280;55045;49.410;11.030;2023-02-02T13:13:08;98529.88;;;4.98;100.00
68226;BME280;55045;49.410;11.030;2023-02-02T13:16:14;98551.03;;;5.14;100.00
68226;BME280;55045;49.410;11.030;2023-02-02T13:19:25;98550.13;;;5.15;100.00
68226;BME280;55045;49.410;11.030;2023-02-02T13:22:34;98553.56;;;5.15;100.00
68226;BME280;55045;49.410;11.030;2023-02-02T13:25:43;98581.97;;;5.08;100.00
68226;BME280;55045;49.410;11.030;2023-02-02T13:28:51;98591.34;;;5.12;100.00
68226;BME280;55045;49.410;11.030;2023-02-02T13:31:58;98595.78;;;5.04;100.00
68226;BME280;55045;49.410;11.030;2023-02-02T13:35:12;98599.34;;;4.95;100.00
68226;BME280;55045;49.410;11.030;2023-02-02T13:38:21;98608.00;;;4.89;100.00
68226;BME280;55045;49.410;11.030;2023-02-02T13:41:26;98606.28;;;4.91;100.00
68226;BME280;55045;49.410;11.030;2023-02-02T13:44:34;98609.88;;;4.81;100.00
68226;BME280;55045;49.410;11.030;2023-02-02T13:47:45;98593.91;;;4.64;100.00
68226;BME280;55045;49.410;11.030;2023-02-02T13:51:05;98616.72;;;4.82;100.00
68226;BME280;55045;49.410;11.030;2023-02-02T13:54:58;98610.75;;;4.80;100.00
68226;BME280;55045;49.410;11.030;2023-02-02T14:01:32;98574.28;;;4.60;100.00
68226;BME280;55045;49.410;11.030;2023-02-02T14:04:36;98619.25;;;4.84;100.00
68226;BME280;55045;49.410;11.030;2023-02-02T14:07:41;98616.59;;;4.88;100.00
68226;BME280;55045;49.410;11.030;2023-02-02T14:10:56;98627.03;;;4.79;100.00
68226;BME280;55045;49.410;11.030;2023-02-02T14:14:07;98620.34;;;4.69;65.16
68226;BME280;55045;49.410;11.030;2023-02-02T14:17:51;98631.69;;;4.57;100.00
68226;BME280;55045;49.410;11.030;2023-02-02T14:20:54;98666.47;;;4.77;100.00
68226;BME280;55045;49.410;11.030;2023-02-02T14:23:59;98664.72;;;4.80;100.00
68226;BME280;55045;49.410;11.030;2023-02-02T14:27:52;98642.66;;;4.67;100.00
68226;BME280;55045;49.410;11.030;2023-02-02T14:31:24;98673.44;;;4.72;100.00
68226;BME280;55045;49.410;11.030;2023-02-02T14:34:32;98661.47;;;4.69;100.00
68226;BME280;55045;49.410;11.030;2023-02-02T14:37:41;98665.72;;;4.72;100.00
68226;BME280;55045;49.410;11.030;2023-02-02T14:40:47;98663.22;;;4.67;100.00
68226;BME280;55045;49.410;11.030;2023-02-02T14:44:02;98662.44;;;4.62;100.00
68226;BME280;55045;49.410;11.030;2023-02-02T14:50:46;98665.06;;;4.57;100.00
68226;BME280;55045;49.410;11.030;2023-02-02T14:53:52;98656.50;;;4.58;100.00
68226;BME280;55045;49.410;11.030;2023-02-02T14:56:59;98657.38;;;4.57;100.00
68226;BME280;55045;49.410;11.030;2023-02-02T15:00:21;98677.03;;;4.61;100.00
68226;BME280;55045;49.410;11.030;2023-02-02T15:03:34;98675.28;;;4.62;100.00
68226;BME280;55045;49.410;11.030;2023-02-02T15:06:39;98677.88;;;4.62;100.00
68226;BME280;55045;49.410;11.030;2023-02-02T15:09:44;98692.34;;;4.66;100.00
68226;BME280;55045;49.410;11.030;2023-02-02T15:13:02;98696.75;;;4.58;100.00
68226;BME280;55045;49.410;11.030;2023-02-02T15:16:13;98713.00;;;4.60;100.00
68226;BME280;55045;49.410;11.030;2023-02-02T15:19:26;98709.22;;;4.24;100.00
68226;BME280;55045;49.410;11.030;2023-02-02T15:22:37;98714.38;;;3.52;100.00
68226;BME280;55045;49.410;11.030;2023-02-02T15:25:47;98723.72;;;3.56;100.00
68226;BME280;55045;49.410;11.030;2023-02-02T15:28:54;98731.63;;;3.36;100.00
68226;BME280;55045;49.410;11.030;2023-02-02T15:32:02;98722.56;;;2.95;100.00
68226;BME280;55045;49.410;11.030;2023-02-02T15:35:10;98737.25;;;2.78;100.00
68226;BME280;55045;49.410;11.030;2023-02-02T15:38:17;98674.41;;;2.28;100.00
68226;BME280;55045;49.410;11.030;2023-02-02T15:41:25;98727.81;;;2.81;100.00
68226;BME280;55045;49.410;11.030;2023-02-02T15:44:29;98749.41;;;2.42;100.00
68226;BME280;55045;49.410;11.030;2023-02-02T15:47:36;98773.19;;;2.61;100.00
68226;BME280;55045;49.410;11.030;2023-02-02T15:50:44;98758.00;;;2.35;100.00
68226;BME280;55045;49.410;11.030;2023-02-02T15:53:49;98787.00;;;2.34;100.00
68226;BME280;55045;49.410;11.030;2023-02-02T15:56:54;98785.28;;;2.39;100.00
68226;BME280;55045;49.410;11.030;2023-02-02T16:00:00;98724.03;;;2.06;100.00
68226;BME280;55045;49.410;11.030;2023-02-02T16:03:18;98804.91;;;2.37;100.00
68226;BME280;55045;49.410;11.030;2023-02-02T16:06:26;98750.50;;;1.91;100.00
68226;BME280;55045;49.410;11.030;2023-02-02T16:09:32;98826.19;;;2.51;100.00
68226;BME280;55045;49.410;11.030;2023-02-02T16:12:38;98828.00;;;2.22;100.00
68226;BME280;55045;49.410;11.030;2023-02-02T16:15:53;98839.94;;;2.21;100.00
68226;BME280;55045;49.410;11.030;2023-02-02T16:19:04;98828.91;;;2.09;100.00
68226;BME280;55045;49.410;11.030;2023-02-02T16:22:14;98817.81;;;2.16;100.00
68226;BME280;55045;49.410;11.030;2023-02-02T16:25:21;98850.16;;;2.23;100.00
68226;BME280;55045;49.410;11.030;2023-02-02T16:28:27;98834.00;;;2.19;100.00
68226;BME280;55045;49.410;11.030;2023-02-02T16:34:43;98863.84;;;2.22;100.00
68226;BME280;55045;49.410;11.030;2023-02-02T16:37:48;98849.41;;;1.98;100.00
68226;BME280;55045;49.410;11.030;2023-02-02T16:41:03;98870.59;;;2.47;100.00
68226;BME280;55045;49.410;11.030;2023-02-02T16:44:28;98870.66;;;2.29;100.00
68226;BME280;55045;49.410;11.030;2023-02-02T16:47:37;98885.13;;;2.38;100.00
68226;BME280;55045;49.410;11.030;2023-02-02T16:50:42;98874.97;;;2.07;100.00
68226;BME280;55045;49.410;11.030;2023-02-02T16:53:47;98884.31;;;2.22;100.00